Time;durP1;ratioP1;P1;durP2;ratioP2;P2;SDS_P1;SDS_P2;PMS_P1;PMS_P2;Temp;Humidity;BMP_temperature;BMP_pressure;BME280_temperature;BME280_humidity;BME280_pressure;Samples;Min_cycle;Max_cycle;Signal;HPM_P1;HPM_P2
2022/10/30 00:01:13;;;;;;;11.50;6.35;;;18.80;1.00;;;;;;4975854;28;20164;-70
2022/10/30 00:03:39;;;;;;;13.05;6.53;;;18.80;1.00;;;;;;4975771;28;20319;-70
2022/10/30 00:06:05;;;;;;;18.25;6.07;;;18.80;1.00;;;;;;4975304;28;20294;-69
2022/10/30 00:08:31;;;;;;;16.35;6.50;;;18.70;1.00;;;;;;4974971;28;20219;-70
2022/10/30 00:10:56;;;;;;;13.93;6.07;;;18.50;1.00;;;;;;4975706;28;20247;-69
2022/10/30 00:13:22;;;;;;;12.38;6.00;;;18.50;1.00;;;;;;4975375;28;20176;-69
2022/10/30 00:15:52;;;;;;;11.18;6.05;;;18.50;1.00;;;;;;4975560;28;20195;-69
2022/10/30 00:18:19;;;;;;;19.38;6.45;;;18.60;1.00;;;;;;4975603;28;20172;-70
2022/10/30 00:20:45;;;;;;;13.32;5.47;;;18.50;1.00;;;;;;4974844;28;20755;-69
2022/10/30 00:23:10;;;;;;;13.30;6.07;;;18.50;1.00;;;;;;4975299;28;20259;-69
2022/10/30 00:25:36;;;;;;;14.45;6.43;;;18.40;1.00;;;;;;4975381;28;20165;-70
2022/10/30 00:28:04;;;;;;;12.18;5.60;;;18.40;1.00;;;;;;4975234;28;20176;-69
2022/10/30 00:30:29;;;;;;;13.40;5.97;;;18.40;1.00;;;;;;4974960;28;20216;-69
2022/10/30 00:32:55;;;;;;;12.43;5.63;;;18.40;1.00;;;;;;4975241;28;20699;-69
2022/10/30 00:35:20;;;;;;;10.57;6.03;;;18.40;1.00;;;;;;4974663;28;20246;-69
2022/10/30 00:37:46;;;;;;;10.77;6.07;;;18.50;1.00;;;;;;4974953;28;20565;-69
2022/10/30 00:40:16;;;;;;;11.27;5.73;;;18.50;1.00;;;;;;4975124;28;20172;-69
2022/10/30 00:42:42;;;;;;;16.95;6.10;;;18.50;1.00;;;;;;4975021;28;20321;-70
2022/10/30 00:45:11;;;;;;;13.33;5.80;;;18.50;1.00;;;;;;4974882;28;20232;-69
2022/10/30 00:47:48;;;;;;;15.10;6.20;;;18.40;1.00;;;;;;4974924;28;20255;-69
2022/10/30 00:50:35;;;;;;;10.90;5.40;;;18.40;1.00;;;;;;4974917;28;20263;-69
2022/10/30 00:53:07;;;;;;;15.63;7.03;;;18.40;1.00;;;;;;4974947;28;20172;-69
2022/10/30 00:55:41;;;;;;;11.67;5.90;;;18.30;1.00;;;;;;4974788;28;20644;-69
2022/10/30 00:58:11;;;;;;;8.67;5.47;;;18.30;1.00;;;;;;4974650;28;20171;-69
2022/10/30 01:00:40;;;;;;;12.87;6.10;;;18.30;1.00;;;;;;4974811;28;20168;-69
2022/10/30 01:03:06;;;;;;;13.93;5.50;;;18.30;1.00;;;;;;4974251;28;20239;-69
2022/10/30 01:05:32;;;;;;;10.60;5.53;;;18.20;1.00;;;;;;4974625;28;20176;-69
2022/10/30 01:07:58;;;;;;;13.50;6.57;;;18.20;1.00;;;;;;4974570;28;20214;-69
2022/10/30 01:10:24;;;;;;;11.57;6.17;;;18.20;1.00;;;;;;4974520;28;20220;-69
2022/10/30 01:12:51;;;;;;;13.23;6.20;;;18.10;1.00;;;;;;4974371;28;20645;-69
2022/10/30 01:15:19;;;;;;;11.27;6.10;;;18.10;1.00;;;;;;4974614;28;20301;-69
2022/10/30 01:18:13;;;;;;;17.13;6.10;;;18.10;1.00;;;;;;4974259;28;20207;-69
2022/10/30 01:21:06;;;;;;;12.60;5.70;;;18.10;1.00;;;;;;4973094;28;20191;-69
2022/10/30 01:23:55;;;;;;;11.10;5.93;;;18.10;1.00;;;;;;4974384;28;20180;-69
2022/10/30 01:26:29;;;;;;;15.10;6.57;;;18.10;1.00;;;;;;4974659;28;20227;-69
2022/10/30 01:29:05;;;;;;;12.53;6.17;;;18.00;1.00;;;;;;4974322;28;20179;-69
2022/10/30 01:32:08;;;;;;;12.27;5.90;;;18.10;1.00;;;;;;4973743;28;20291;-69
2022/10/30 01:35:03;;;;;;;10.40;6.03;;;18.00;1.00;;;;;;4973139;28;20699;-69
2022/10/30 01:38:00;;;;;;;18.93;6.63;;;17.90;1.00;;;;;;4974276;28;20636;-69
2022/10/30 01:40:25;;;;;;;17.10;6.50;;;17.90;1.90;;;;;;4974587;28;20179;-69
2022/10/30 01:42:52;;;;;;;16.70;7.17;;;17.90;3.10;;;;;;4974379;28;20233;-69
2022/10/30 01:45:24;;;;;;;18.57;6.53;;;17.90;2.10;;;;;;4974247;28;20540;-69
2022/10/30 01:48:06;;;;;;;14.07;7.00;;;17.90;2.80;;;;;;4973873;28;20175;-69
2022/10/30 01:50:56;;;;;;;14.70;7.20;;;17.90;1.00;;;;;;4974076;28;20211;-69
2022/10/30 01:53:55;;;;;;;15.53;7.17;;;17.90;1.10;;;;;;4974355;28;20286;-69
2022/10/30 01:56:54;;;;;;;16.60;7.67;;;17.90;1.00;;;;;;4939435;28;20184;-69
2022/10/30 01:59:35;;;;;;;17.60;7.17;;;17.90;1.20;;;;;;4974371;28;20180;-69
2022/10/30 02:02:01;;;;;;;15.63;7.03;;;17.90;3.70;;;;;;4973965;28;20168;-69
2022/10/30 02:04:27;;;;;;;16.87;7.00;;;17.90;2.50;;;;;;4974169;28;20186;-69
2022/10/30 02:06:53;;;;;;;16.03;6.73;;;17.90;2.10;;;;;;4974180;28;20176;-69
2022/10/30 02:09:18;;;;;;;13.50;7.00;;;17.80;2.50;;;;;;4974030;28;20223;-69
2022/10/30 02:11:45;;;;;;;16.40;6.87;;;17.80;2.50;;;;;;4974197;28;20176;-69
2022/10/30 02:14:16;;;;;;;15.67;7.13;;;17.90;3.30;;;;;;4974194;28;20247;-69
2022/10/30 02:16:47;;;;;;;17.17;6.93;;;17.90;1.20;;;;;;4973916;28;20188;-68
2022/10/30 02:19:13;;;;;;;13.47;6.50;;;17.90;1.00;;;;;;4973978;28;20220;-69
2022/10/30 02:21:39;;;;;;;16.23;7.33;;;17.90;1.00;;;;;;4973841;28;20199;-70
2022/10/30 02:24:05;;;;;;;16.63;6.73;;;17.90;1.00;;;;;;4974011;28;20706;-69
2022/10/30 02:26:30;;;;;;;20.87;6.90;;;17.90;1.00;;;;;;4973882;28;20164;-69
2022/10/30 02:28:56;;;;;;;13.97;6.97;;;17.80;1.00;;;;;;4973875;28;20211;-69
2022/10/30 02:31:21;;;;;;;17.00;6.67;;;17.80;1.00;;;;;;4973985;28;20231;-69
2022/10/30 02:33:48;;;;;;;13.47;6.03;;;17.80;1.00;;;;;;4977252;28;20203;-69
2022/10/30 02:36:16;;;;;;;19.27;6.87;;;17.80;1.40;;;;;;4977300;28;20222;-68
2022/10/30 02:38:43;;;;;;;15.47;6.63;;;17.80;2.20;;;;;;4977307;28;20186;-69
2022/10/30 02:41:09;;;;;;;12.27;7.00;;;17.70;5.70;;;;;;4977411;28;20190;-68
2022/10/30 02:43:35;;;;;;;15.57;6.83;;;17.70;3.70;;;;;;4977193;28;20648;-69
2022/10/30 02:46:00;;;;;;;19.27;7.40;;;17.80;1.00;;;;;;4976936;28;20203;-69
2022/10/30 02:48:26;;;;;;;10.23;6.00;;;17.70;1.00;;;;;;4977074;28;20651;-68
2022/10/30 02:50:51;;;;;;;14.13;6.40;;;17.80;1.00;;;;;;4977076;28;20220;-69
2022/10/30 02:53:17;;;;;;;14.30;7.00;;;17.60;3.70;;;;;;4976892;28;20578;-68
2022/10/30 02:55:43;;;;;;;17.33;7.50;;;17.60;7.40;;;;;;4976930;28;20186;-70
2022/10/30 02:58:08;;;;;;;16.83;7.37;;;17.60;9.70;;;;;;4976951;28;20256;-69
2022/10/30 03:00:34;;;;;;;19.23;7.40;;;17.60;8.00;;;;;;4976613;28;20521;-69
2022/10/30 03:03:00;;;;;;;13.80;7.30;;;17.60;8.40;;;;;;4976672;28;20632;-69
2022/10/30 03:05:25;;;;;;;15.73;7.30;;;17.60;10.90;;;;;;4976767;28;20266;-69
2022/10/30 03:07:52;;;;;;;18.90;7.63;;;17.50;11.90;;;;;;4976888;28;20203;-68
2022/10/30 03:10:18;;;;;;;14.73;7.27;;;17.50;15.80;;;;;;4976581;28;20222;-69
2022/10/30 03:12:43;;;;;;;13.43;6.33;;;17.50;16.60;;;;;;4976289;28;20196;-67
2022/10/30 03:15:09;;;;;;;12.53;6.53;;;17.50;12.80;;;;;;4976581;28;20208;-69
2022/10/30 03:17:35;;;;;;;13.00;6.60;;;17.60;10.80;;;;;;4976670;28;20176;-69
2022/10/30 03:20:01;;;;;;;16.03;7.00;;;17.60;6.50;;;;;;4976410;28;20196;-69
2022/10/30 03:22:26;;;;;;;15.80;6.57;;;17.70;5.60;;;;;;4976472;28;20540;-69
2022/10/30 03:24:52;;;;;;;14.27;6.67;;;17.60;3.20;;;;;;4976441;28;20184;-68
2022/10/30 03:27:18;;;;;;;12.33;6.70;;;17.60;7.00;;;;;;4976150;28;20258;-68
2022/10/30 03:29:43;;;;;;;14.83;6.90;;;17.60;7.90;;;;;;4976017;28;20272;-70
2022/10/30 03:32:10;;;;;;;12.70;6.67;;;17.60;7.00;;;;;;4976358;28;20172;-69
2022/10/30 03:34:36;;;;;;;17.53;7.17;;;17.50;10.20;;;;;;4976200;28;20219;-69
2022/10/30 03:37:02;;;;;;;19.13;7.87;;;17.30;17.60;;;;;;4976305;28;20184;-69
2022/10/30 03:39:28;;;;;;;15.93;7.10;;;17.20;27.40;;;;;;4976314;28;20184;-69
2022/10/30 03:41:53;;;;;;;15.70;7.27;;;17.10;32.50;;;;;;4975749;28;20172;-69
2022/10/30 03:44:19;;;;;;;11.93;7.63;;;16.80;46.40;;;;;;4975167;28;20204;-70
2022/10/30 03:46:44;;;;;;;12.73;7.23;;;16.60;56.30;;;;;;4976073;28;20237;-70
2022/10/30 03:49:10;;;;;;;15.73;8.23;;;16.50;64.60;;;;;;4975828;28;20226;-69
2022/10/30 03:51:36;;;;;;;15.90;7.20;;;16.60;63.20;;;;;;4974773;28;20278;-69
2022/10/30 03:54:01;;;;;;;12.80;7.27;;;16.70;56.60;;;;;;4975858;28;20251;-69
2022/10/30 03:56:27;;;;;;;15.97;8.30;;;16.80;53.90;;;;;;4975443;28;20508;-69
2022/10/30 03:58:52;;;;;;;19.13;8.87;;;16.80;50.20;;;;;;4975790;28;20227;-69
2022/10/30 04:01:18;;;;;;;17.97;8.10;;;16.80;54.10;;;;;;4975921;28;20605;-69
2022/10/30 04:03:44;;;;;;;17.53;7.87;;;16.90;48.50;;;;;;4975520;28;20180;-69
2022/10/30 04:06:09;;;;;;;20.97;7.63;;;17.00;44.80;;;;;;4975720;28;20176;-69
2022/10/30 04:08:35;;;;;;;20.53;8.17;;;17.00;38.80;;;;;;4975569;28;20540;-69
2022/10/30 04:11:01;;;;;;;18.30;7.43;;;17.10;36.10;;;;;;4975161;28;20275;-68
2022/10/30 04:13:26;;;;;;;14.27;7.17;;;17.20;29.70;;;;;;4975106;28;20172;-69
2022/10/30 04:15:52;;;;;;;14.47;7.43;;;17.30;26.30;;;;;;4975721;28;20636;-69
2022/10/30 04:18:18;;;;;;;13.03;7.00;;;17.30;24.00;;;;;;4975051;28;20176;-69
2022/10/30 04:20:44;;;;;;;15.40;7.30;;;17.40;21.10;;;;;;4973900;28;20568;-69
2022/10/30 04:23:14;;;;;;;15.20;6.80;;;17.40;18.80;;;;;;4975412;28;20211;-69
2022/10/30 04:25:39;;;;;;;13.07;6.47;;;17.40;17.20;;;;;;4975018;28;20246;-69
2022/10/30 04:28:05;;;;;;;13.37;6.97;;;17.20;17.80;;;;;;4975167;28;20638;-69
2022/10/30 04:30:34;;;;;;;15.77;6.33;;;17.20;23.20;;;;;;4974843;28;20575;-69
2022/10/30 04:33:00;;;;;;;14.47;6.43;;;17.10;25.20;;;;;;4973527;28;20188;-69
2022/10/30 04:35:29;;;;;;;13.80;6.27;;;17.00;30.60;;;;;;4974928;28;20219;-69
2022/10/30 04:38:03;;;;;;;15.37;6.30;;;17.00;30.10;;;;;;4974958;28;20262;-69
2022/10/30 04:40:32;;;;;;;12.73;6.47;;;17.00;31.00;;;;;;4974443;28;20172;-69
2022/10/30 04:42:58;;;;;;;13.20;6.77;;;17.00;30.80;;;;;;4974461;28;20263;-69
2022/10/30 04:45:24;;;;;;;12.57;6.90;;;17.10;28.10;;;;;;4974429;28;20251;-69
2022/10/30 04:47:49;;;;;;;12.07;6.63;;;17.10;25.90;;;;;;4974592;28;20211;-70
2022/10/30 04:50:16;;;;;;;14.67;7.43;;;17.10;24.80;;;;;;4974715;28;20168;-69
2022/10/30 04:52:42;;;;;;;15.87;8.00;;;17.10;24.50;;;;;;4974525;28;20188;-69
2022/10/30 04:55:09;;;;;;;13.77;7.83;;;17.10;23.90;;;;;;4972355;28;20698;-69
2022/10/30 04:57:35;;;;;;;16.33;8.13;;;17.00;30.80;;;;;;4974367;28;20172;-69
2022/10/30 05:00:05;;;;;;;15.53;7.97;;;16.90;34.60;;;;;;4974307;28;20180;-69
2022/10/30 05:02:33;;;;;;;14.93;7.03;;;16.90;37.70;;;;;;4974217;28;20164;-69
2022/10/30 05:04:58;;;;;;;12.47;7.13;;;16.80;39.30;;;;;;4974308;28;20172;-69
2022/10/30 05:07:24;;;;;;;16.77;7.00;;;16.80;41.30;;;;;;4974249;28;20179;-70
2022/10/30 05:09:49;;;;;;;14.20;7.13;;;16.80;41.60;;;;;;4973890;28;20183;-69
2022/10/30 05:12:15;;;;;;;17.93;7.60;;;16.80;41.40;;;;;;4974139;28;20175;-70
2022/10/30 05:14:41;;;;;;;12.90;7.57;;;16.70;39.00;;;;;;4974516;28;20235;-69
2022/10/30 05:17:07;;;;;;;18.10;7.90;;;16.70;37.70;;;;;;4974212;28;20550;-69
2022/10/30 05:19:33;;;;;;;15.90;8.23;;;16.60;49.20;;;;;;4974407;28;20278;-70
2022/10/30 05:21:58;;;;;;;17.47;8.80;;;16.50;55.70;;;;;;4974453;28;20650;-70
2022/10/30 05:24:24;;;;;;;16.47;8.87;;;16.30;72.10;;;;;;4973873;28;20172;-69
2022/10/30 05:26:49;;;;;;;12.47;8.80;;;16.20;85.40;;;;;;4974175;28;20203;-69
2022/10/30 05:29:15;;;;;;;19.10;8.87;;;16.10;85.20;;;;;;4974354;28;20184;-70
2022/10/30 05:31:41;;;;;;;22.33;9.20;;;15.90;92.50;;;;;;4974045;28;20714;-70
2022/10/30 05:34:06;;;;;;;17.07;9.30;;;15.80;96.60;;;;;;4974422;28;20581;-69
2022/10/30 05:36:32;;;;;;;14.43;9.20;;;15.70;99.90;;;;;;4974040;28;20525;-69
2022/10/30 05:38:57;;;;;;;16.03;8.77;;;15.70;99.90;;;;;;4973667;28;20266;-69
2022/10/30 05:41:23;;;;;;;15.17;9.30;;;15.60;99.90;;;;;;4974106;28;20180;-69
2022/10/30 05:43:49;;;;;;;19.93;9.40;;;15.50;99.90;;;;;;4973448;28;20203;-70
2022/10/30 05:46:14;;;;;;;18.63;9.03;;;15.40;99.90;;;;;;4974317;28;20199;-70
2022/10/30 05:48:40;;;;;;;14.47;8.60;;;15.30;99.90;;;;;;4974188;28;20184;-69
2022/10/30 05:51:07;;;;;;;15.73;8.83;;;15.30;99.90;;;;;;4974074;28;20707;-69
2022/10/30 05:53:33;;;;;;;14.90;9.60;;;15.20;99.90;;;;;;4973782;28;20218;-69
2022/10/30 05:55:59;;;;;;;17.53;8.93;;;15.10;99.90;;;;;;4973897;28;20575;-69
2022/10/30 05:58:24;;;;;;;15.73;8.97;;;15.10;99.90;;;;;;4973869;28;20542;-69
2022/10/30 06:00:50;;;;;;;17.27;9.70;;;15.00;99.90;;;;;;4973813;28;20585;-69
2022/10/30 06:03:16;;;;;;;15.27;9.03;;;15.00;99.90;;;;;;4973408;28;20533;-69
2022/10/30 06:05:44;;;;;;;21.77;9.27;;;15.10;99.90;;;;;;4973772;28;20535;-69
2022/10/30 06:08:10;;;;;;;23.50;9.33;;;15.10;99.90;;;;;;4977119;28;20180;-69
2022/10/30 06:10:36;;;;;;;17.60;9.20;;;15.20;99.90;;;;;;4977513;28;20660;-69
2022/10/30 06:13:04;;;;;;;21.37;9.57;;;15.30;99.90;;;;;;4977201;28;20238;-70
2022/10/30 06:15:30;;;;;;;22.27;10.30;;;15.40;99.90;;;;;;4976887;28;20207;-69
2022/10/30 06:17:56;;;;;;;19.80;9.97;;;15.40;99.90;;;;;;4977621;28;20175;-69
2022/10/30 06:20:24;;;;;;;18.83;9.70;;;15.50;99.90;;;;;;4977629;28;20213;-69
2022/10/30 06:22:58;;;;;;;23.73;9.87;;;15.40;99.90;;;;;;4977047;28;20655;-69
2022/10/30 06:25:25;;;;;;;18.37;9.70;;;15.40;99.90;;;;;;4977319;28;20184;-69
2022/10/30 06:27:51;;;;;;;19.47;9.97;;;15.40;99.90;;;;;;4977368;28;20200;-69
2022/10/30 06:30:17;;;;;;;21.63;9.73;;;15.40;99.90;;;;;;4976948;28;20749;-69
2022/10/30 06:32:43;;;;;;;23.97;10.43;;;15.40;99.90;;;;;;4977165;28;20616;-69
2022/10/30 06:35:09;;;;;;;20.00;10.73;;;15.40;99.90;;;;;;4975583;28;20207;-69
2022/10/30 06:37:35;;;;;;;20.03;10.37;;;15.50;99.90;;;;;;4976939;28;20576;-69
2022/10/30 06:40:00;;;;;;;19.60;10.87;;;15.40;99.90;;;;;;4976929;28;20262;-69
2022/10/30 06:42:26;;;;;;;23.00;10.60;;;15.30;99.90;;;;;;4977035;28;20229;-69
2022/10/30 06:44:53;;;;;;;22.37;10.53;;;15.20;99.90;;;;;;4976231;28;20187;-69
2022/10/30 06:47:18;;;;;;;20.00;9.90;;;15.20;99.90;;;;;;4975205;28;20187;-69
2022/10/30 06:49:44;;;;;;;21.73;9.93;;;15.40;99.90;;;;;;4976998;28;20176;-69
2022/10/30 06:52:09;;;;;;;24.27;10.57;;;15.60;99.90;;;;;;4976328;28;20176;-69
2022/10/30 06:54:35;;;;;;;20.17;9.60;;;15.80;99.90;;;;;;4976373;28;20302;-70
2022/10/30 06:57:00;;;;;;;16.53;9.77;;;15.90;99.90;;;;;;4976125;28;20180;-69
2022/10/30 06:59:26;;;;;;;18.93;9.60;;;15.90;99.90;;;;;;4976661;28;20188;-70
2022/10/30 07:01:52;;;;;;;26.37;10.10;;;15.90;99.90;;;;;;4974841;28;20334;-70
2022/10/30 07:04:18;;;;;;;17.47;9.83;;;16.00;99.90;;;;;;4976901;28;20261;-69
2022/10/30 07:06:43;;;;;;;22.07;9.73;;;16.00;99.90;;;;;;4976256;28;20169;-70
2022/10/30 07:09:09;;;;;;;17.23;9.57;;;16.00;99.90;;;;;;4976288;28;20251;-70
2022/10/30 07:11:34;;;;;;;19.47;9.40;;;16.10;99.90;;;;;;4974624;28;20178;-70
2022/10/30 07:14:00;;;;;;;17.10;9.70;;;16.20;99.90;;;;;;4975073;28;20683;-69
2022/10/30 07:16:26;;;;;;;14.60;8.93;;;16.30;99.90;;;;;;4976278;28;20179;-70
2022/10/30 07:18:52;;;;;;;20.67;9.53;;;16.70;99.90;;;;;;4974528;28;20235;-71
2022/10/30 07:21:18;;;;;;;17.77;9.70;;;17.40;93.20;;;;;;4976187;28;20569;-71
2022/10/30 07:23:43;;;;;;;20.85;9.60;;;18.10;64.90;;;;;;4976158;28;20259;-70
2022/10/30 07:26:09;;;;;;;17.48;9.57;;;19.00;22.10;;;;;;4976015;28;20184;-70
2022/10/30 07:28:34;;;;;;;19.33;9.00;;;19.80;1.00;;;;;;4976539;28;20639;-71
2022/10/30 07:31:00;;;;;;;17.77;8.27;;;20.30;1.00;;;;;;4976027;28;20267;-69
2022/10/30 07:33:26;;;;;;;20.58;9.13;;;20.50;1.00;;;;;;4976023;28;20644;-70
2022/10/30 07:35:51;;;;;;;18.70;9.05;;;20.90;1.00;;;;;;4975630;28;20323;-71
2022/10/30 07:38:17;;;;;;;14.82;8.70;;;21.30;1.00;;;;;;4975380;28;20171;-69
2022/10/30 07:40:43;;;;;;;20.73;8.77;;;21.60;1.00;;;;;;4975934;28;20711;-71
2022/10/30 07:43:12;;;;;;;20.45;9.25;;;21.90;99.90;;;;;;4975715;28;20255;-71
2022/10/30 07:45:37;;;;;;;23.52;8.57;;;22.00;99.90;;;;;;4975990;28;20176;-71
2022/10/30 07:48:03;;;;;;;20.77;9.65;;;22.20;99.90;;;;;;4974906;28;20206;-70
2022/10/30 07:50:29;;;;;;;23.35;10.27;;;22.20;99.90;;;;;;4975193;28;20168;-70
2022/10/30 07:52:55;;;;;;;23.95;9.35;;;22.20;99.90;;;;;;4975232;28;20638;-71
2022/10/30 07:55:21;;;;;;;21.05;9.55;;;22.40;99.90;;;;;;4974315;28;20219;-71
2022/10/30 07:57:47;;;;;;;19.10;8.65;;;22.40;99.90;;;;;;4975617;28;20172;-71
2022/10/30 08:00:14;;;;;;;25.00;10.02;;;22.60;99.90;;;;;;4974870;28;20639;-71
2022/10/30 08:02:40;;;;;;;21.60;9.48;;;22.60;99.90;;;;;;4975251;28;20168;-72
2022/10/30 08:05:06;;;;;;;23.13;9.90;;;22.70;99.90;;;;;;4975239;28;20176;-71
2022/10/30 08:07:33;;;;;;;18.52;9.30;;;22.90;99.90;;;;;;4975366;28;20187;-71
2022/10/30 08:09:59;;;;;;;20.55;9.55;;;23.20;99.90;;;;;;4974482;28;20679;-71
2022/10/30 08:12:26;;;;;;;19.40;9.15;;;23.60;99.90;;;;;;4975229;28;20172;-71
2022/10/30 08:14:52;;;;;;;18.17;9.20;;;23.80;99.90;;;;;;4974910;28;20215;-72
2022/10/30 08:17:18;;;;;;;16.88;9.50;;;24.30;99.90;;;;;;4974507;28;20172;-72
2022/10/30 08:19:44;;;;;;;19.10;8.73;;;24.70;99.00;;;;;;4975188;28;20332;-71
2022/10/30 08:22:10;;;;;;;19.38;8.68;;;25.20;97.30;;;;;;4974929;28;20220;-71
2022/10/30 08:24:36;;;;;;;18.50;9.02;;;25.10;96.60;;;;;;4974944;28;20172;-72
2022/10/30 08:27:02;;;;;;;17.00;8.95;;;24.60;97.30;;;;;;4974972;28;20496;-71
2022/10/30 08:29:28;;;;;;;16.20;8.85;;;24.30;97.50;;;;;;4973760;28;20187;-72
2022/10/30 08:31:54;;;;;;;19.02;9.13;;;23.80;98.40;;;;;;4974402;28;20180;-71
2022/10/30 08:34:20;;;;;;;20.45;12.45;;;23.20;99.50;;;;;;4974926;28;20218;-71
2022/10/30 08:36:50;;;;;;;18.65;9.45;;;22.70;99.90;;;;;;4974602;28;20179;-70
2022/10/30 08:39:16;;;;;;;15.77;9.45;;;22.50;99.90;;;;;;4974826;28;20168;-71
2022/10/30 08:41:42;;;;;;;20.08;9.18;;;22.50;99.90;;;;;;4974833;28;20172;-71
2022/10/30 08:44:08;;;;;;;17.10;8.95;;;22.50;99.90;;;;;;4975303;28;20180;-70
2022/10/30 08:46:33;;;;;;;15.48;8.93;;;22.10;99.90;;;;;;4973881;28;20509;-72
2022/10/30 08:49:00;;;;;;;15.35;8.70;;;22.10;99.90;;;;;;4974463;28;20214;-71
2022/10/30 08:51:25;;;;;;;16.33;8.90;;;22.20;99.90;;;;;;4974380;28;20168;-71
2022/10/30 08:53:51;;;;;;;13.75;8.05;;;22.30;99.90;;;;;;4973885;28;20219;-72
2022/10/30 08:56:17;;;;;;;20.00;9.40;;;22.80;99.90;;;;;;4974597;28;20254;-72
2022/10/30 08:58:42;;;;;;;16.52;7.93;;;23.30;99.90;;;;;;4974140;28;20179;-71
2022/10/30 09:01:09;;;;;;;16.63;8.52;;;24.20;99.00;;;;;;4973972;28;20172;-71
2022/10/30 09:03:34;;;;;;;17.17;8.02;;;25.20;97.00;;;;;;4974037;28;20222;-72
2022/10/30 09:06:00;;;;;;;16.90;8.70;;;25.10;95.90;;;;;;4974172;28;20651;-72
2022/10/30 09:08:27;;;;;;;20.13;9.63;;;25.60;94.90;;;;;;4974135;28;20254;-71
2022/10/30 09:10:57;;;;;;;18.15;9.23;;;26.00;93.50;;;;;;4974059;28;20183;-71
2022/10/30 09:13:24;;;;;;;18.85;9.48;;;26.20;91.90;;;;;;4973495;28;20229;-71
2022/10/30 09:15:50;;;;;;;15.02;8.95;;;26.30;1.00;;;;;;4973851;28;20226;-71
2022/10/30 09:18:16;;;;;;;17.40;8.88;;;26.10;1.00;;;;;;4973669;28;20196;-71
2022/10/30 09:20:41;;;;;;;20.15;9.23;;;26.30;1.00;;;;;;4974101;28;20187;-71
2022/10/30 09:23:07;;;;;;;17.30;9.18;;;25.70;1.00;;;;;;4972954;28;20194;-71
2022/10/30 09:25:33;;;;;;;18.55;9.55;;;25.70;1.00;;;;;;4973094;28;20171;-71
2022/10/30 09:27:58;;;;;;;17.98;9.57;;;26.60;1.00;;;;;;4974045;28;20182;-71
2022/10/30 09:30:24;;;;;;;15.50;9.30;;;27.20;1.00;;;;;;4973295;28;20268;-71
2022/10/30 09:32:57;;;;;;;15.80;8.75;;;27.90;99.90;;;;;;4972134;28;20179;-73
2022/10/30 09:35:24;;;;;;;15.57;9.23;;;29.00;99.90;;;;;;4973533;28;20200;-73
2022/10/30 09:37:49;;;;;;;18.55;9.23;;;29.80;99.90;;;;;;4973826;28;20172;-73
2022/10/30 09:40:30;;;;;;;17.25;8.50;;;30.40;99.90;;;;;;4973693;28;20263;-73
2022/10/30 09:43:24;;;;;;;10.80;7.82;;;31.20;99.90;;;;;;4977240;28;20172;-74
2022/10/30 09:46:01;;;;;;;16.10;7.65;;;31.20;99.90;;;;;;4971627;28;20246;-74
2022/10/30 09:49:08;;;;;;;19.75;8.23;;;31.50;99.90;;;;;;4977506;28;20180;-73
2022/10/30 09:52:12;;;;;;;14.85;7.30;;;31.80;99.90;;;;;;4971945;28;20195;-73
2022/10/30 09:54:50;;;;;;;15.40;7.80;;;31.60;99.90;;;;;;4977517;28;20219;-73
2022/10/30 09:57:48;;;;;;;12.23;7.55;;;31.20;99.90;;;;;;4977646;28;20175;-73
2022/10/30 10:00:19;;;;;;;14.32;7.53;;;31.00;99.90;;;;;;4936220;29;20181;-74
2022/10/30 10:02:52;;;;;;;15.50;7.30;;;30.40;99.90;;;;;;4936808;29;20185;-73
2022/10/30 10:05:21;;;;;;;14.52;7.97;;;29.90;99.90;;;;;;4936603;29;20212;-72
2022/10/30 10:07:51;;;;;;;12.73;6.88;;;28.90;99.90;;;;;;4936670;29;20701;-74
2022/10/30 10:10:41;;;;;;;16.13;7.80;;;29.10;99.90;;;;;;4936367;29;20680;-73
2022/10/30 10:13:15;;;;;;;14.75;7.95;;;28.90;99.90;;;;;;4936804;29;20183;-73
2022/10/30 10:15:47;;;;;;;15.38;7.68;;;28.10;99.90;;;;;;4936885;29;20253;-72
2022/10/30 10:18:25;;;;;;;15.73;7.70;;;27.20;99.90;;;;;;4937006;29;20656;-71
2022/10/30 10:20:54;;;;;;;14.93;7.90;;;26.50;99.90;;;;;;4936324;29;20521;-72
2022/10/30 10:23:26;;;;;;;13.70;7.55;;;25.60;1.00;;;;;;4936738;29;20650;-71
2022/10/30 10:25:53;;;;;;;14.63;7.55;;;25.30;1.00;;;;;;4936262;29;20677;-70
2022/10/30 10:28:37;;;;;;;18.27;7.97;;;24.60;99.90;;;;;;4935877;29;20621;-71
2022/10/30 10:31:11;;;;;;;17.40;8.13;;;24.30;1.00;;;;;;4936198;29;20225;-69
2022/10/30 10:33:51;;;;;;;15.63;8.07;;;24.30;1.00;;;;;;4936479;29;20180;-70
2022/10/30 10:36:39;;;;;;;16.25;8.25;;;24.20;94.10;;;;;;4964685;28;20192;-70
2022/10/30 10:39:53;;;;;;;17.67;8.85;;;24.10;94.90;;;;;;4975526;28;20253;-70
2022/10/30 10:42:29;;;;;;;21.15;8.20;;;23.80;95.40;;;;;;4945951;28;20215;-70
2022/10/30 10:45:18;;;;;;;23.77;8.75;;;23.40;96.80;;;;;;4976862;28;20163;-70
2022/10/30 10:48:06;;;;;;;18.90;9.25;;;23.40;97.10;;;;;;4957590;28;20191;-70
2022/10/30 10:50:35;;;;;;;16.08;8.60;;;23.10;98.20;;;;;;4976597;28;20575;-70
2022/10/30 10:53:16;;;;;;;16.70;8.63;;;23.10;98.50;;;;;;4976145;28;20172;-71
2022/10/30 10:55:48;;;;;;;15.45;7.65;;;23.20;98.40;;;;;;4976511;28;20271;-71
2022/10/30 10:58:32;;;;;;;18.45;8.25;;;23.30;98.30;;;;;;4975706;28;20176;-71
2022/10/30 11:00:58;;;;;;;16.55;9.13;;;23.20;98.70;;;;;;4976009;28;20187;-71
2022/10/30 11:04:05;;;;;;;20.90;9.35;;;23.00;99.60;;;;;;4976024;28;20172;-70
2022/10/30 11:06:36;;;;;;;20.00;8.40;;;23.10;99.90;;;;;;4967252;28;20179;-70
2022/10/30 11:09:15;;;;;;;21.55;9.73;;;22.80;99.90;;;;;;4976171;28;20190;-72
2022/10/30 11:11:43;;;;;;;19.27;8.05;;;22.30;99.90;;;;;;4975756;28;20182;-71
2022/10/30 11:14:20;;;;;;;17.48;8.45;;;22.30;99.90;;;;;;4976087;28;20269;-71
2022/10/30 11:17:14;;;;;;;17.33;8.63;;;22.20;99.90;;;;;;4975948;28;20306;-70
2022/10/30 11:19:39;;;;;;;17.25;8.25;;;22.30;99.90;;;;;;4961306;28;20207;-70
2022/10/30 11:22:17;;;;;;;18.65;8.50;;;22.30;99.90;;;;;;4975817;28;20172;-70
2022/10/30 11:24:42;;;;;;;18.75;8.90;;;22.90;99.90;;;;;;4975974;28;20179;-70
2022/10/30 11:27:23;;;;;;;17.08;8.07;;;23.00;99.90;;;;;;4975707;28;20180;-70
2022/10/30 11:29:53;;;;;;;16.23;8.15;;;23.60;99.90;;;;;;4974427;28;20599;-70
2022/10/30 11:32:21;;;;;;;16.60;8.00;;;23.50;99.90;;;;;;4974186;28;20640;-70
2022/10/30 11:34:59;;;;;;;15.70;7.65;;;23.30;99.90;;;;;;4975830;28;20298;-70
2022/10/30 11:37:31;;;;;;;14.00;7.78;;;23.60;99.90;;;;;;4975331;28;20171;-70
2022/10/30 11:40:08;;;;;;;18.33;7.47;;;23.80;99.40;;;;;;4975236;28;20195;-70
2022/10/30 11:42:35;;;;;;;21.30;7.35;;;23.60;99.90;;;;;;4975618;28;20175;-70
2022/10/30 11:45:01;;;;;;;14.45;7.35;;;23.60;99.90;;;;;;4975615;28;20225;-70
2022/10/30 11:47:32;;;;;;;14.63;8.18;;;23.80;99.90;;;;;;4975658;28;20171;-70
2022/10/30 11:50:01;;;;;;;15.70;7.25;;;24.00;99.30;;;;;;4974634;28;20176;-70
2022/10/30 11:52:27;;;;;;;16.38;6.38;;;23.80;99.30;;;;;;4975237;28;20183;-71
2022/10/30 11:55:17;;;;;;;14.73;6.40;;;23.50;99.30;;;;;;4974922;28;20211;-71
2022/10/30 11:57:54;;;;;;;12.27;6.88;;;23.50;99.20;;;;;;4975196;28;20180;-71
2022/10/30 12:00:31;;;;;;;10.75;6.07;;;23.20;99.90;;;;;;4975550;28;20260;-70
2022/10/30 12:03:02;;;;;;;16.48;6.60;;;23.10;99.90;;;;;;4974701;28;20176;-70
2022/10/30 12:05:29;;;;;;;11.73;5.93;;;23.00;99.90;;;;;;4974101;28;20191;-71
2022/10/30 12:08:07;;;;;;;12.15;6.50;;;22.80;99.90;;;;;;4974795;28;20172;-70
2022/10/30 12:10:42;;;;;;;15.15;6.57;;;22.80;99.90;;;;;;4974551;28;20194;-71
2022/10/30 12:13:15;;;;;;;10.52;5.80;;;22.50;99.90;;;;;;4975064;28;20176;-71
2022/10/30 12:15:41;;;;;;;13.30;6.25;;;22.50;99.90;;;;;;4974991;28;20234;-70
2022/10/30 12:18:16;;;;;;;14.38;7.43;;;22.30;99.90;;;;;;4975265;28;20175;-71
2022/10/30 12:20:46;;;;;;;11.63;6.85;;;22.50;99.90;;;;;;4975248;28;20187;-70
2022/10/30 12:23:18;;;;;;;15.50;6.47;;;22.50;99.90;;;;;;4974915;28;20251;-70
2022/10/30 12:25:52;;;;;;;10.45;5.35;;;22.60;99.90;;;;;;4974661;28;20176;-71
2022/10/30 12:28:24;;;;;;;12.23;5.88;;;22.80;99.90;;;;;;4975079;28;20171;-71
2022/10/30 12:31:04;;;;;;;14.45;5.85;;;22.70;99.90;;;;;;4974605;28;20722;-69
2022/10/30 12:33:57;;;;;;;12.65;6.45;;;22.80;99.90;;;;;;4974451;28;20172;-70
2022/10/30 12:36:26;;;;;;;9.57;5.88;;;22.90;99.90;;;;;;4974499;28;20200;-71
2022/10/30 12:39:36;;;;;;;10.43;6.22;;;23.10;99.90;;;;;;4974430;28;20183;-71
2022/10/30 12:42:14;;;;;;;12.55;6.03;;;23.20;99.90;;;;;;4933771;29;20681;-69
2022/10/30 12:44:51;;;;;;;12.38;6.45;;;22.80;99.90;;;;;;4933882;29;20173;-70
2022/10/30 12:47:26;;;;;;;13.80;6.32;;;22.50;99.90;;;;;;4959669;28;20192;-70
2022/10/30 12:50:02;;;;;;;14.05;5.68;;;22.50;99.90;;;;;;4974650;28;20179;-71
2022/10/30 12:52:31;;;;;;;18.85;5.93;;;22.70;99.90;;;;;;4974279;28;20167;-70
2022/10/30 12:55:35;;;;;;;10.05;6.15;;;22.50;99.90;;;;;;4974189;28;20311;-70